Time;durP1;ratioP1;P1;durP2;ratioP2;P2;SDS_P1;SDS_P2;PMS_P1;PMS_P2;Temp;Humidity;BMP_temperature;BMP_pressure;BME280_temperature;BME280_humidity;BME280_pressure;Samples;Min_cycle;Max_cycle;Signal;HPM_P1;HPM_P2
2022/08/08 00:04:48;;;;;;;1.95;1.33;;;25.80;61.80;;;;;;10716951;33;20040;-72
2022/08/08 00:11:11;;;;;;;2.55;1.20;;;25.80;61.60;;;;;;10712910;33;20068;-71
2022/08/08 00:17:53;;;;;;;1.70;0.98;;;25.70;61.70;;;;;;10717953;33;20071;-71
2022/08/08 00:24:12;;;;;;;1.73;1.00;;;25.80;61.70;;;;;;10830083;32;20066;-70
2022/08/08 00:30:14;;;;;;;1.42;1.02;;;25.80;61.60;;;;;;10829930;32;20071;-71
2022/08/08 00:36:25;;;;;;;2.45;0.75;;;25.80;61.60;;;;;;10830047;32;20435;-71
2022/08/08 00:43:22;;;;;;;1.17;0.82;;;25.80;61.60;;;;;;10830110;33;20416;-70
2022/08/08 00:49:29;;;;;;;1.33;0.85;;;25.80;61.50;;;;;;10680788;33;20052;-71
2022/08/08 00:55:43;;;;;;;1.60;0.90;;;25.80;61.50;;;;;;10680547;33;20057;-70
2022/08/08 01:01:59;;;;;;;3.28;1.25;;;25.80;61.40;;;;;;10680067;33;20033;-71
2022/08/08 01:08:23;;;;;;;2.37;1.10;;;25.80;61.30;;;;;;10680142;33;20149;-71
2022/08/08 01:14:31;;;;;;;0.60;0.60;;;25.60;61.60;;;;;;10676205;33;20025;-71
2022/08/08 01:21:09;;;;;;;0.47;0.45;;;25.30;62.00;;;;;;10737097;33;20043;-71
2022/08/08 01:27:28;;;;;;;1.05;0.95;;;25.40;62.00;;;;;;10829261;33;20020;-71
2022/08/08 01:33:59;;;;;;;0.57;0.57;;;25.40;61.90;;;;;;10353054;33;12120972;-70
2022/08/08 01:40:42;;;;;;;1.58;1.00;;;25.50;61.80;;;;;;10731838;33;20083;-70
2022/08/08 01:47:15;;;;;;;0.88;0.70;;;25.50;61.80;;;;;;10686428;33;20068;-70
2022/08/08 01:53:23;;;;;;;3.10;1.40;;;25.40;61.80;;;;;;10686121;33;20048;-71
2022/08/08 01:59:45;;;;;;;0.68;0.50;;;25.40;61.80;;;;;;10757147;33;20386;-72
2022/08/08 02:06:10;;;;;;;0.45;0.45;;;25.20;62.00;;;;;;10757440;33;20021;-72
2022/08/08 02:12:28;;;;;;;0.95;0.85;;;25.00;62.30;;;;;;10757211;33;20075;-71
2022/08/08 02:18:43;;;;;;;1.63;1.37;;;24.80;62.50;;;;;;10757622;33;20334;-71
2022/08/08 02:25:12;;;;;;;1.55;0.90;;;24.90;62.40;;;;;;10833055;32;20012;-71
2022/08/08 02:31:43;;;;;;;1.08;0.68;;;25.00;62.20;;;;;;10720750;33;20056;-71
2022/08/08 02:38:09;;;;;;;1.42;1.08;;;25.10;62.10;;;;;;10718457;33;20044;-70
2022/08/08 02:44:43;;;;;;;0.88;0.57;;;25.10;62.10;;;;;;10719598;33;20037;-70
2022/08/08 02:50:55;;;;;;;0.73;0.70;;;25.10;62.10;;;;;;10719358;33;20025;-71
2022/08/08 02:57:35;;;;;;;1.95;1.12;;;25.00;62.20;;;;;;10719467;33;20032;-70
2022/08/08 03:03:56;;;;;;;1.27;0.80;;;24.90;62.30;;;;;;10713226;32;20021;-69
2022/08/08 03:10:36;;;;;;;0.85;0.80;;;25.00;62.30;;;;;;10832716;32;20024;-70
2022/08/08 03:16:57;;;;;;;1.62;1.00;;;25.00;62.20;;;;;;10832445;32;20028;-70
2022/08/08 03:23:00;;;;;;;1.10;0.73;;;24.90;62.30;;;;;;10815292;33;20388;-70
2022/08/08 03:29:40;;;;;;;1.35;0.80;;;25.00;62.30;;;;;;10831954;32;20043;-70
2022/08/08 03:35:47;;;;;;;0.75;0.60;;;25.00;62.20;;;;;;10831823;32;20016;-70
2022/08/08 03:41:50;;;;;;;3.12;0.65;;;25.00;62.20;;;;;;10831579;32;20052;-70
2022/08/08 03:48:04;;;;;;;1.30;0.75;;;25.00;62.20;;;;;;10831211;32;20019;-71
2022/08/08 03:54:08;;;;;;;1.60;1.08;;;24.90;62.30;;;;;;10831219;32;20024;-71
2022/08/08 04:00:13;;;;;;;1.25;0.88;;;24.80;62.50;;;;;;10830391;32;20392;-71
2022/08/08 04:06:39;;;;;;;0.85;0.50;;;24.80;62.60;;;;;;10830918;32;20328;-71
2022/08/08 04:12:42;;;;;;;1.48;1.17;;;24.70;62.60;;;;;;10830500;32;20019;-70
2022/08/08 04:18:45;;;;;;;1.92;0.90;;;24.70;62.50;;;;;;10830348;32;20024;-71
2022/08/08 04:24:47;;;;;;;1.15;0.82;;;24.70;62.50;;;;;;10830247;32;20016;-70
2022/08/08 04:30:50;;;;;;;4.10;0.80;;;24.60;62.50;;;;;;10854341;27;20319;-71
2022/08/08 04:37:12;;;;;;;1.70;0.82;;;24.60;62.70;;;;;;10863504;32;20355;-70
2022/08/08 04:43:14;;;;;;;1.55;1.00;;;24.60;62.60;;;;;;10866949;32;20020;-71
2022/08/08 04:49:17;;;;;;;1.48;1.02;;;24.70;62.50;;;;;;10867126;32;20049;-70
2022/08/08 04:55:19;;;;;;;1.48;0.73;;;24.70;62.40;;;;;;10864407;32;20324;-70
2022/08/08 05:01:25;;;;;;;0.85;0.57;;;24.70;62.40;;;;;;10866644;32;20066;-70
2022/08/08 05:07:28;;;;;;;0.98;0.88;;;24.80;62.30;;;;;;10866555;32;20051;-71
2022/08/08 05:13:46;;;;;;;0.73;0.73;;;24.70;62.40;;;;;;10870993;32;20024;-71
2022/08/08 05:19:48;;;;;;;0.60;0.60;;;24.70;62.40;;;;;;10873663;32;20039;-70
2022/08/08 05:25:51;;;;;;;1.83;0.80;;;24.70;62.50;;;;;;10873608;32;20070;-71
2022/08/08 05:31:54;;;;;;;2.28;0.95;;;24.80;62.30;;;;;;10873237;32;20028;-71
2022/08/08 05:38:03;;;;;;;0.85;0.82;;;24.80;62.30;;;;;;10873163;32;20061;-71
2022/08/08 05:44:12;;;;;;;2.65;1.00;;;24.80;62.30;;;;;;10871349;32;20046;-71
2022/08/08 05:50:16;;;;;;;1.30;0.62;;;24.80;62.30;;;;;;10871663;32;20066;-71
2022/08/08 05:56:19;;;;;;;0.70;0.60;;;24.80;62.20;;;;;;10872578;32;20015;-70
2022/08/08 06:08:51;;;;;;;1.67;0.77;;;25.10;61.90;;;;;;10870794;32;20050;-71
2022/08/08 06:15:00;;;;;;;1.75;1.15;;;25.30;61.80;;;;;;10871684;32;20034;-71
2022/08/08 06:21:03;;;;;;;0.98;0.70;;;25.30;61.50;;;;;;10854235;32;20027;-71
2022/08/08 06:27:56;;;;;;;1.20;0.88;;;25.50;61.30;;;;;;10870098;32;20462;-70
2022/08/08 06:34:18;;;;;;;1.12;0.82;;;25.80;61.10;;;;;;10870493;32;20035;-68
2022/08/08 06:40:23;;;;;;;2.65;0.98;;;26.00;60.90;;;;;;10869829;32;20062;-70
2022/08/08 06:46:25;;;;;;;0.95;0.62;;;26.30;60.60;;;;;;10866421;32;20027;-69
2022/08/08 06:52:27;;;;;;;3.03;1.73;;;26.40;60.30;;;;;;10866652;32;20031;-70
2022/08/08 06:58:55;;;;;;;2.75;1.65;;;26.50;60.20;;;;;;10866029;32;20023;-69
2022/08/08 07:05:15;;;;;;;2.80;1.40;;;26.70;59.90;;;;;;10853267;32;20027;-68
2022/08/08 07:11:39;;;;;;;3.83;1.95;;;26.80;59.60;;;;;;10866894;32;20054;-69
2022/08/08 07:18:02;;;;;;;3.58;2.20;;;27.00;59.20;;;;;;10866227;32;20335;-68
2022/08/08 07:24:23;;;;;;;4.60;2.85;;;27.10;58.80;;;;;;10852786;32;20031;-69
2022/08/08 07:30:26;;;;;;;1.77;1.60;;;27.30;58.20;;;;;;10862702;32;20050;-69
2022/08/08 07:36:33;;;;;;;2.50;1.30;;;27.30;58.10;;;;;;10863530;32;20317;-69
2022/08/08 07:42:37;;;;;;;5.23;2.23;;;27.30;58.10;;;;;;10865464;32;20478;-70
2022/08/08 07:48:40;;;;;;;3.35;1.87;;;27.50;57.70;;;;;;10864625;32;20019;-69
2022/08/08 07:55:08;;;;;;;2.53;1.85;;;27.60;57.30;;;;;;10863170;32;20214;-69
2022/08/08 08:01:14;;;;;;;2.55;1.77;;;27.70;57.10;;;;;;10750444;33;20025;-69
2022/08/08 08:07:24;;;;;;;2.00;1.67;;;27.80;56.80;;;;;;10751083;33;20491;-69
2022/08/08 08:13:40;;;;;;;1.70;1.30;;;27.90;56.60;;;;;;10750723;33;20063;-69
2022/08/08 08:19:47;;;;;;;2.67;1.90;;;28.10;56.50;;;;;;10750011;33;20029;-69
2022/08/08 08:25:50;;;;;;;4.93;1.57;;;28.30;56.20;;;;;;10750834;33;20028;-69
2022/08/08 08:31:53;;;;;;;4.30;2.37;;;28.20;55.80;;;;;;10748632;33;20125;-70
2022/08/08 08:37:55;;;;;;;3.72;2.37;;;28.30;55.60;;;;;;10838176;32;20375;-70
2022/08/08 08:44:01;;;;;;;2.92;1.87;;;28.50;55.40;;;;;;10862645;32;20028;-69
2022/08/08 08:50:03;;;;;;;4.82;2.75;;;28.60;55.20;;;;;;10870635;32;20446;-69
2022/08/08 08:56:09;;;;;;;6.15;2.15;;;28.70;54.90;;;;;;10870296;32;20023;-70
2022/08/08 09:02:23;;;;;;;4.07;2.37;;;28.80;54.70;;;;;;10871240;32;20347;-70
2022/08/08 09:08:27;;;;;;;5.45;2.87;;;28.90;54.60;;;;;;10869156;32;20430;-69
2022/08/08 09:14:31;;;;;;;262.92;40.95;;;29.00;54.30;;;;;;10869819;32;20028;-69
2022/08/08 09:20:40;;;;;;;13.75;4.03;;;29.10;53.90;;;;;;10869483;32;20336;-70
2022/08/08 09:26:53;;;;;;;3.90;2.95;;;29.20;53.80;;;;;;10869167;32;20090;-69
2022/08/08 09:32:56;;;;;;;3.55;1.80;;;29.30;53.70;;;;;;10869756;32;20054;-70
2022/08/08 09:39:18;;;;;;;6.32;3.33;;;29.30;53.70;;;;;;10868762;32;20284;-69
2022/08/08 09:45:50;;;;;;;3.17;1.95;;;29.30;53.60;;;;;;10868591;32;20050;-70
2022/08/08 09:52:09;;;;;;;3.90;2.42;;;29.50;53.10;;;;;;10869402;32;20055;-70
2022/08/08 09:58:18;;;;;;;4.45;2.40;;;29.70;52.60;;;;;;10867558;32;20077;-69
2022/08/08 10:04:22;;;;;;;5.57;2.92;;;29.80;52.70;;;;;;10866977;32;20031;-70
2022/08/08 10:10:36;;;;;;;5.55;3.12;;;30.00;52.20;;;;;;10868453;32;20039;-70
2022/08/08 10:16:42;;;;;;;3.55;2.35;;;30.20;51.70;;;;;;10867622;32;20407;-71
2022/08/08 10:23:29;;;;;;;6.32;2.53;;;30.40;51.10;;;;;;10866482;32;20054;-71
2022/08/08 10:29:37;;;;;;;3.17;2.28;;;30.50;50.70;;;;;;10866774;32;20357;-70
2022/08/08 10:35:39;;;;;;;7.53;3.53;;;30.70;50.40;;;;;;10868271;32;20024;-71
2022/08/08 10:41:45;;;;;;;4.22;3.12;;;30.80;49.90;;;;;;10866589;32;20082;-70
2022/08/08 10:47:59;;;;;;;4.43;2.67;;;30.80;49.80;;;;;;10867225;32;20297;-69
2022/08/08 10:54:02;;;;;;;5.53;3.83;;;30.90;49.70;;;;;;10866273;32;20462;-70
2022/08/08 11:00:12;;;;;;;3.72;2.55;;;31.10;49.70;;;;;;10866000;32;20023;-70
2022/08/08 11:06:22;;;;;;;6.10;2.00;;;31.30;49.50;;;;;;10866079;32;20019;-71
2022/08/08 11:12:27;;;;;;;4.50;2.50;;;31.60;49.50;;;;;;10866378;32;20046;-71
2022/08/08 11:18:32;;;;;;;3.72;2.72;;;31.80;48.70;;;;;;10865358;32;20050;-71
2022/08/08 11:24:36;;;;;;;5.45;3.28;;;32.10;48.30;;;;;;10866556;32;20019;-71
2022/08/08 11:30:40;;;;;;;4.37;2.70;;;32.30;47.70;;;;;;10864326;32;20065;-70
2022/08/08 11:36:45;;;;;;;4.03;2.55;;;32.40;47.60;;;;;;10865247;32;20031;-70
2022/08/08 11:42:49;;;;;;;4.60;3.33;;;32.80;46.90;;;;;;10865272;32;20019;-71
2022/08/08 11:48:54;;;;;;;4.00;3.22;;;32.90;47.10;;;;;;10866101;32;20051;-71
2022/08/08 11:54:56;;;;;;;4.10;2.90;;;33.00;46.40;;;;;;10864439;32;20351;-72
2022/08/08 12:00:58;;;;;;;3.78;2.47;;;33.10;46.10;;;;;;10868095;32;20011;-72
2022/08/08 12:07:05;;;;;;;3.78;2.53;;;33.20;45.90;;;;;;10868097;32;20012;-72
2022/08/08 12:13:11;;;;;;;3.37;2.45;;;33.30;46.00;;;;;;10867942;32;20016;-72
2022/08/08 12:19:32;;;;;;;4.07;2.13;;;33.50;45.30;;;;;;10867576;32;20024;-72
2022/08/08 12:25:35;;;;;;;5.40;3.30;;;33.60;45.30;;;;;;10866429;32;20024;-72
2022/08/08 12:31:41;;;;;;;3.58;2.30;;;33.50;45.20;;;;;;10868951;27;20367;-72
2022/08/08 12:37:57;;;;;;;4.25;3.15;;;33.40;44.90;;;;;;10866910;32;20395;-72
2022/08/08 12:44:45;;;;;;;2.95;2.00;;;33.30;44.90;;;;;;10866270;32;20383;-72
2022/08/08 12:51:32;;;;;;;4.57;3.40;;;33.30;44.40;;;;;;10867084;32;20013;-72
2022/08/08 12:57:34;;;;;;;4.32;2.90;;;33.40;44.20;;;;;;10753382;33;20029;-73
2022/08/08 13:03:47;;;;;;;4.28;3.20;;;33.40;44.00;;;;;;10751941;33;20428;-75
2022/08/08 13:10:03;;;;;;;4.53;2.80;;;33.50;44.10;;;;;;10753211;33;20025;-72
2022/08/08 13:16:23;;;;;;;5.70;3.72;;;33.50;43.80;;;;;;10752955;33;20055;-72
2022/08/08 13:22:25;;;;;;;4.55;3.05;;;33.50;43.60;;;;;;10752892;33;20089;-72
2022/08/08 13:28:42;;;;;;;4.95;2.80;;;33.50;43.70;;;;;;10752419;33;20029;-72
2022/08/08 13:34:49;;;;;;;4.95;3.08;;;33.60;43.50;;;;;;10852109;32;20332;-72
2022/08/08 13:40:52;;;;;;;;;;;33.70;43.30;;;;;;10873331;32;20023;-72
2022/08/08 13:46:56;;;;;;;3.67;2.70;;;33.60;43.30;;;;;;10873067;32;20251;-72
2022/08/08 13:52:58;;;;;;;2.97;2.33;;;33.60;43.40;;;;;;10871870;32;20027;-72
2022/08/08 13:59:01;;;;;;;3.80;2.83;;;33.60;43.30;;;;;;10872622;32;20020;-72
2022/08/08 14:05:27;;;;;;;4.93;2.83;;;33.70;43.50;;;;;;10872230;32;20393;-72
2022/08/08 14:11:29;;;;;;;4.90;3.25;;;33.60;43.80;;;;;;10872025;32;20024;-72
2022/08/08 14:17:31;;;;;;;3.67;2.50;;;33.40;44.00;;;;;;10871697;32;20313;-72
2022/08/08 14:23:42;;;;;;;3.03;2.00;;;33.40;44.30;;;;;;10871677;32;20367;-72
2022/08/08 14:29:59;;;;;;;4.60;3.75;;;33.40;44.30;;;;;;10870448;32;20054;-72
2022/08/08 14:37:03;;;;;;;3.65;2.58;;;33.60;43.80;;;;;;10871279;32;20050;-72
2022/08/08 14:43:06;;;;;;;4.87;3.22;;;33.70;43.40;;;;;;10684589;33;20403;-73
2022/08/08 14:49:11;;;;;;;5.45;3.58;;;33.80;43.10;;;;;;10679324;33;20383;-72
2022/08/08 14:55:15;;;;;;;4.68;3.12;;;33.80;43.00;;;;;;10679995;33;20083;-72
2022/08/08 15:01:24;;;;;;;6.05;3.62;;;33.60;43.10;;;;;;10666592;33;20037;-72
2022/08/08 15:07:26;;;;;;;3.40;2.47;;;33.60;43.20;;;;;;10660899;33;20481;-72
2022/08/08 15:13:29;;;;;;;7.32;3.15;;;33.70;43.10;;;;;;10683446;33;20060;-72
2022/08/08 15:19:31;;;;;;;3.70;2.25;;;33.80;42.90;;;;;;10791661;32;20047;-72
2022/08/08 15:25:33;;;;;;;5.35;2.12;;;33.80;43.00;;;;;;10832034;32;20059;-72
2022/08/08 15:31:36;;;;;;;3.42;2.25;;;33.80;44.00;;;;;;10830833;32;20024;-72
2022/08/08 15:37:53;;;;;;;4.00;2.90;;;33.60;44.50;;;;;;10831669;32;20021;-72
2022/08/08 15:44:01;;;;;;;4.05;2.40;;;33.60;44.40;;;;;;10831149;32;20044;-72
2022/08/08 15:50:04;;;;;;;4.85;2.65;;;33.70;44.50;;;;;;10831067;32;20032;-72
2022/08/08 15:56:08;;;;;;;4.10;2.60;;;33.90;44.30;;;;;;10830212;32;20019;-72
2022/08/08 16:02:11;;;;;;;4.70;2.50;;;34.00;44.30;;;;;;10837926;32;20328;-72
2022/08/08 16:08:13;;;;;;;5.53;3.80;;;34.00;44.10;;;;;;10866971;32;20062;-72
2022/08/08 16:14:16;;;;;;;4.20;2.70;;;34.00;44.20;;;;;;10863243;32;20327;-72
2022/08/08 16:20:19;;;;;;;5.00;2.47;;;34.00;44.30;;;;;;10867101;32;20050;-72
2022/08/08 16:26:23;;;;;;;2.87;2.17;;;34.00;43.80;;;;;;10866791;32;20042;-72
2022/08/08 16:32:25;;;;;;;4.07;2.50;;;34.00;44.00;;;;;;10866910;32;20028;-72
2022/08/08 16:38:27;;;;;;;4.12;2.70;;;34.10;44.10;;;;;;10878489;32;20388;-72
2022/08/08 16:44:29;;;;;;;3.42;2.58;;;34.20;44.10;;;;;;10866518;32;20035;-72
2022/08/08 16:50:32;;;;;;;4.28;2.60;;;34.10;43.80;;;;;;10866720;32;20302;-72
2022/08/08 16:56:34;;;;;;;3.97;2.58;;;34.00;43.90;;;;;;10866437;32;20027;-72
2022/08/08 17:02:37;;;;;;;6.18;3.33;;;33.90;43.90;;;;;;10866247;32;20051;-72
2022/08/08 17:08:39;;;;;;;5.10;2.42;;;33.80;44.00;;;;;;10870083;32;20347;-72
2022/08/08 17:14:41;;;;;;;3.60;2.50;;;33.60;44.40;;;;;;10873941;32;20430;-72
2022/08/08 17:20:43;;;;;;;3.15;2.05;;;33.40;44.90;;;;;;10873664;32;20061;-72
2022/08/08 17:26:46;;;;;;;2.95;1.77;;;33.30;45.30;;;;;;10873402;32;20294;-72
2022/08/08 17:32:59;;;;;;;3.03;2.00;;;33.10;45.60;;;;;;10873352;32;20028;-72
2022/08/08 17:39:02;;;;;;;4.40;1.67;;;32.90;45.90;;;;;;10873130;32;20043;-72
2022/08/08 17:45:08;;;;;;;2.30;1.60;;;32.70;46.30;;;;;;10872796;32;20027;-72
2022/08/08 17:51:51;;;;;;;2.87;2.08;;;32.60;46.60;;;;;;10872691;32;20032;-72
2022/08/08 17:57:53;;;;;;;3.30;2.08;;;32.40;46.90;;;;;;10871090;32;20062;-72
2022/08/08 18:03:57;;;;;;;5.05;2.45;;;32.20;47.20;;;;;;10872228;32;20050;-72
2022/08/08 18:10:00;;;;;;;2.92;1.87;;;32.00;47.70;;;;;;10868106;32;20073;-72
2022/08/08 18:16:30;;;;;;;9.70;2.40;;;31.80;48.10;;;;;;10870920;32;20289;-72
2022/08/08 18:22:33;;;;;;;2.87;1.90;;;31.70;48.50;;;;;;10870995;32;20058;-72
2022/08/08 18:28:37;;;;;;;2.58;1.87;;;31.60;48.70;;;;;;10871410;32;20042;-72
2022/08/08 18:35:13;;;;;;;3.00;1.80;;;31.50;48.80;;;;;;10871180;32;20031;-72
2022/08/08 18:41:15;;;;;;;2.30;1.35;;;31.50;49.00;;;;;;10871018;32;20058;-72
2022/08/08 18:47:21;;;;;;;2.70;2.05;;;31.40;49.30;;;;;;10866480;32;20054;-72
2022/08/08 18:53:23;;;;;;;4.32;2.67;;;31.30;49.80;;;;;;10870578;32;20050;-72
2022/08/08 18:59:25;;;;;;;3.85;2.80;;;31.00;50.40;;;;;;10870424;32;20019;-72
2022/08/08 19:05:30;;;;;;;4.93;2.72;;;30.90;50.70;;;;;;10870100;32;20028;-72
2022/08/08 19:11:33;;;;;;;5.12;2.47;;;30.90;50.70;;;;;;10868923;32;20036;-72
2022/08/08 19:17:35;;;;;;;4.62;2.45;;;30.90;50.70;;;;;;10869779;32;20023;-72
2022/08/08 19:23:38;;;;;;;3.58;2.67;;;30.80;51.00;;;;;;10869446;32;20031;-72
2022/08/08 19:29:40;;;;;;;3.78;2.28;;;30.80;51.00;;;;;;10868280;32;20032;-72
2022/08/08 19:35:43;;;;;;;3.78;2.45;;;30.70;51.40;;;;;;10869003;32;20031;-71
2022/08/08 19:41:45;;;;;;;2.05;1.60;;;30.70;51.50;;;;;;10865571;32;20332;-72
2022/08/08 19:47:49;;;;;;;2.92;2.20;;;30.60;51.50;;;;;;10865409;32;20035;-72
2022/08/08 19:53:52;;;;;;;3.72;2.62;;;30.60;51.50;;;;;;10865453;32;20027;-72
2022/08/08 19:59:54;;;;;;;4.12;2.08;;;30.60;51.50;;;;;;10861633;32;20058;-72
2022/08/08 20:05:56;;;;;;;3.75;2.12;;;30.60;51.60;;;;;;10860496;32;20399;-71
2022/08/08 20:12:01;;;;;;;5.97;2.92;;;30.50;51.70;;;;;;10864341;32;20031;-71
2022/08/08 20:18:06;;;;;;;5.10;3.42;;;30.40;51.80;;;;;;10866803;32;20078;-71
2022/08/08 20:24:09;;;;;;;7.80;3.72;;;30.30;51.90;;;;;;10867306;32;20036;-71
2022/08/08 20:30:13;;;;;;;4.03;2.70;;;30.30;51.80;;;;;;10871147;27;20043;-71
2022/08/08 20:36:17;;;;;;;4.70;2.55;;;30.10;51.90;;;;;;10867197;32;20400;-71
2022/08/08 20:42:22;;;;;;;3.72;2.60;;;30.10;51.80;;;;;;10866730;32;20050;-71
2022/08/08 20:48:24;;;;;;;3.08;2.10;;;30.10;51.80;;;;;;10866956;32;20051;-71
2022/08/08 20:54:49;;;;;;;2.92;2.17;;;30.00;51.80;;;;;;10866759;32;20015;-72
2022/08/08 21:00:52;;;;;;;2.42;2.00;;;29.90;51.90;;;;;;10866633;32;20028;-71
2022/08/08 21:06:55;;;;;;;4.32;2.30;;;29.80;52.00;;;;;;10866773;32;20059;-71
2022/08/08 21:12:57;;;;;;;6.53;2.90;;;29.80;51.90;;;;;;10866612;32;20054;-71
2022/08/08 21:18:59;;;;;;;2.65;1.87;;;29.70;51.90;;;;;;10866653;32;20043;-71
2022/08/08 21:25:02;;;;;;;2.08;1.37;;;29.60;51.90;;;;;;10866510;32;20024;-74
2022/08/08 21:31:05;;;;;;;1.92;1.40;;;29.50;52.30;;;;;;10866358;32;20063;-71
2022/08/08 21:37:07;;;;;;;2.75;1.87;;;29.50;52.50;;;;;;10866268;32;20261;-71
2022/08/08 21:43:12;;;;;;;2.62;2.03;;;29.50;52.50;;;;;;10866038;32;20024;-71
2022/08/08 21:49:14;;;;;;;3.10;1.80;;;29.50;52.30;;;;;;10866162;32;20477;-71
2022/08/08 21:55:16;;;;;;;3.12;1.87;;;29.40;52.30;;;;;;10855318;32;20316;-71
2022/08/08 22:01:18;;;;;;;2.87;1.42;;;29.30;52.00;;;;;;10872414;32;20058;-71
2022/08/08 22:07:21;;;;;;;3.45;1.58;;;29.30;52.20;;;;;;10872303;32;20340;-71
2022/08/08 22:13:23;;;;;;;2.47;1.42;;;29.30;52.30;;;;;;10872115;32;20027;-72
2022/08/08 22:19:24;;;;;;;3.28;1.92;;;29.30;52.40;;;;;;10871918;32;20086;-72
2022/08/08 22:25:27;;;;;;;3.35;1.60;;;29.10;52.30;;;;;;10867548;32;20086;-71
2022/08/08 22:31:29;;;;;;;3.72;2.10;;;29.10;52.40;;;;;;10871490;32;20024;-72
2022/08/08 22:37:31;;;;;;;2.67;1.60;;;29.00;52.20;;;;;;10871251;32;20050;-72
2022/08/08 22:43:34;;;;;;;2.67;1.58;;;29.00;52.20;;;;;;10870977;32;20336;-71
2022/08/08 22:49:36;;;;;;;3.15;2.12;;;28.90;52.30;;;;;;10870806;32;20024;-73
2022/08/08 22:55:38;;;;;;;4.40;2.05;;;28.80;52.70;;;;;;10870785;32;20063;-71
2022/08/08 23:01:40;;;;;;;1.98;1.52;;;28.80;52.60;;;;;;10866268;32;20019;-71
2022/08/08 23:07:43;;;;;;;3.05;1.83;;;28.80;52.80;;;;;;10869955;32;20019;-72
2022/08/08 23:13:45;;;;;;;4.43;1.62;;;28.80;52.80;;;;;;10870124;32;20077;-71
2022/08/08 23:19:47;;;;;;;2.90;1.70;;;28.80;53.10;;;;;;10869711;32;20031;-71
2022/08/08 23:25:49;;;;;;;2.45;1.85;;;28.80;53.40;;;;;;10869566;32;20015;-72
2022/08/08 23:31:51;;;;;;;3.33;1.50;;;28.80;53.70;;;;;;10869273;32;20016;-71
2022/08/08 23:37:54;;;;;;;2.30;1.58;;;28.70;54.10;;;;;;10869150;32;20039;-71
2022/08/08 23:43:56;;;;;;;2.05;1.35;;;28.70;54.30;;;;;;10868903;32;20054;-71
2022/08/08 23:49:58;;;;;;;3.15;1.85;;;28.60;54.60;;;;;;10864602;32;20410;-71
2022/08/08 23:56:00;;;;;;;2.67;1.70;;;28.60;55.00;;;;;;10868457;32;20055;-72
